Time;durP1;ratioP1;P1;durP2;ratioP2;P2;SDS_P1;SDS_P2;PMS_P1;PMS_P2;Temp;Humidity;BMP_temperature;BMP_pressure;BME280_temperature;BME280_humidity;BME280_pressure;Samples;Min_cycle;Max_cycle;Signal;HPM_P1;HPM_P2
2022/09/28 00:00:12;;;;;;;5.72;4.43;;;25.30;59.30;;;;;;5031785;28;20086;-71
2022/09/28 00:02:41;;;;;;;6.82;4.93;;;25.50;59.50;;;;;;5023070;28;20107;-71
2022/09/28 00:05:07;;;;;;;6.32;4.45;;;25.40;59.40;;;;;;5036318;28;20378;-71
2022/09/28 00:07:33;;;;;;;6.90;4.22;;;25.30;59.40;;;;;;5033963;28;20029;-70
2022/09/28 00:09:59;;;;;;;5.55;3.88;;;25.30;59.40;;;;;;5033941;28;20025;-70
2022/09/28 00:12:25;;;;;;;6.05;4.40;;;25.30;59.40;;;;;;5033312;28;20367;-70
2022/09/28 00:14:51;;;;;;;5.97;4.43;;;25.30;59.50;;;;;;5030954;28;20084;-70
2022/09/28 00:17:20;;;;;;;10.95;5.47;;;25.30;59.50;;;;;;5031042;28;20503;-71
2022/09/28 00:19:47;;;;;;;6.70;4.43;;;25.30;59.50;;;;;;5049618;28;20025;-70
2022/09/28 00:22:13;;;;;;;6.72;4.40;;;25.20;59.40;;;;;;4987918;28;20081;-71
2022/09/28 00:24:40;;;;;;;13.38;4.80;;;25.20;59.40;;;;;;4991028;28;20148;-71
2022/09/28 00:27:08;;;;;;;11.15;4.25;;;25.20;59.60;;;;;;4975890;28;20065;-71
2022/09/28 00:29:36;;;;;;;6.10;4.13;;;25.20;59.50;;;;;;4993063;28;20104;-71
2022/09/28 00:32:08;;;;;;;4.78;3.72;;;25.30;59.50;;;;;;4986912;28;20038;-71
2022/09/28 00:34:36;;;;;;;6.63;4.18;;;25.20;59.50;;;;;;4992909;28;20066;-71
2022/09/28 00:37:04;;;;;;;5.90;4.32;;;25.10;59.50;;;;;;4936904;28;20051;-71
2022/09/28 00:39:30;;;;;;;4.82;3.80;;;25.30;59.50;;;;;;4952423;28;20468;-70
2022/09/28 00:41:57;;;;;;;7.25;4.00;;;25.20;59.40;;;;;;4937189;29;20039;-71
2022/09/28 00:44:23;;;;;;;5.43;4.30;;;25.30;59.40;;;;;;4951515;28;20069;-70
2022/09/28 00:47:10;;;;;;;5.35;4.13;;;25.30;59.30;;;;;;4939348;29;20474;-71
2022/09/28 00:50:06;;;;;;;4.85;3.67;;;25.30;59.30;;;;;;4969475;28;20396;-71
2022/09/28 00:52:38;;;;;;;6.03;4.68;;;25.30;59.40;;;;;;4899019;29;20029;-70
2022/09/28 00:55:08;;;;;;;4.30;3.90;;;25.30;59.40;;;;;;4911780;29;20399;-71
2022/09/28 00:57:36;;;;;;;4.63;3.80;;;25.30;59.50;;;;;;4910306;29;20048;-71
2022/09/28 01:00:05;;;;;;;6.28;3.92;;;25.40;59.40;;;;;;4903858;29;20725;-71
2022/09/28 01:02:31;;;;;;;8.35;4.20;;;25.40;59.40;;;;;;4916816;29;20048;-71
2022/09/28 01:04:59;;;;;;;5.55;4.18;;;25.30;59.40;;;;;;4933246;29;20102;-71
2022/09/28 01:07:25;;;;;;;4.45;3.85;;;25.30;59.50;;;;;;4917003;29;20556;-71
2022/09/28 01:09:53;;;;;;;7.55;4.50;;;25.30;59.50;;;;;;4932828;29;20062;-71
2022/09/28 01:12:19;;;;;;;5.85;4.38;;;25.20;59.60;;;;;;4933488;29;20111;-71
2022/09/28 01:14:46;;;;;;;8.77;4.38;;;25.20;59.60;;;;;;4941695;29;20159;-71
2022/09/28 01:17:24;;;;;;;8.63;4.70;;;25.10;59.60;;;;;;4951208;28;20122;-71
2022/09/28 01:20:17;;;;;;;6.88;5.30;;;25.10;59.60;;;;;;4967686;28;20038;-70
2022/09/28 01:23:11;;;;;;;5.43;4.28;;;25.10;59.70;;;;;;4917609;29;20676;-71
2022/09/28 01:25:55;;;;;;;9.27;5.13;;;25.10;59.70;;;;;;4901813;29;20062;-71
2022/09/28 01:28:26;;;;;;;6.93;4.88;;;25.10;59.70;;;;;;4938172;28;20430;-71
2022/09/28 01:31:10;;;;;;;9.23;5.22;;;25.10;59.70;;;;;;5030736;28;20123;-71
2022/09/28 01:33:54;;;;;;;9.40;4.97;;;25.20;59.60;;;;;;5030920;28;20036;-71
2022/09/28 01:36:24;;;;;;;6.30;5.13;;;25.00;59.60;;;;;;5030815;28;20397;-70
2022/09/28 01:38:58;;;;;;;6.55;4.10;;;25.20;59.70;;;;;;5032309;28;20030;-71
2022/09/28 01:41:29;;;;;;;7.45;5.07;;;25.20;59.60;;;;;;5030534;28;20022;-70
2022/09/28 01:44:01;;;;;;;8.48;5.30;;;25.20;59.60;;;;;;5029366;28;20386;-71
2022/09/28 01:46:31;;;;;;;;;;;25.20;59.60;;;;;;5015993;28;20066;-71
2022/09/28 01:49:01;;;;;;;7.68;5.25;;;25.30;59.60;;;;;;5003410;28;19932;-71
2022/09/28 01:51:44;;;;;;;7.05;4.95;;;25.30;59.60;;;;;;5009515;28;20081;-71
2022/09/28 01:54:22;;;;;;;5.32;4.45;;;25.20;59.60;;;;;;5001035;28;20041;-71
2022/09/28 01:57:14;;;;;;;5.68;5.07;;;25.30;59.50;;;;;;5029565;28;20042;-70
2022/09/28 01:59:48;;;;;;;4.95;3.60;;;25.30;59.40;;;;;;4998382;28;20042;-71
2022/09/28 02:02:23;;;;;;;7.13;4.00;;;25.30;59.40;;;;;;4989152;28;20555;-71
2022/09/28 02:05:00;;;;;;;4.88;4.40;;;25.30;59.30;;;;;;4962419;28;20436;-71
2022/09/28 02:08:01;;;;;;;5.95;4.60;;;25.20;59.20;;;;;;4970811;28;20039;-70
2022/09/28 02:10:43;;;;;;;7.50;4.82;;;25.20;59.30;;;;;;4856994;29;20041;-71
2022/09/28 02:13:33;;;;;;;6.22;4.85;;;25.20;59.40;;;;;;4841733;29;20609;-71
2022/09/28 02:16:20;;;;;;;6.93;4.35;;;25.00;59.40;;;;;;4801050;29;20652;-71
2022/09/28 02:18:49;;;;;;;7.03;5.30;;;25.10;59.60;;;;;;4805298;29;20061;-70
2022/09/28 02:21:23;;;;;;;7.47;5.43;;;25.00;59.60;;;;;;4805281;29;20106;-70
2022/09/28 02:23:56;;;;;;;7.93;5.07;;;25.00;59.80;;;;;;4819634;29;20500;-71
2022/09/28 02:26:30;;;;;;;9.02;5.00;;;25.00;59.90;;;;;;4802715;29;20050;-70
2022/09/28 02:28:56;;;;;;;7.22;5.63;;;25.00;59.80;;;;;;4813368;29;20104;-71
2022/09/28 02:31:23;;;;;;;8.10;5.25;;;25.00;59.80;;;;;;4802034;29;20069;-69
2022/09/28 02:33:50;;;;;;;6.97;5.60;;;25.00;59.80;;;;;;4836519;29;20044;-71
2022/09/28 02:36:16;;;;;;;11.18;4.85;;;25.10;59.80;;;;;;4817211;29;20102;-71
2022/09/28 02:38:42;;;;;;;10.63;5.95;;;25.20;59.80;;;;;;4844985;29;20117;-71
2022/09/28 02:41:32;;;;;;;7.05;5.28;;;25.10;59.70;;;;;;4856800;29;20233;-71
2022/09/28 02:44:17;;;;;;;5.40;4.88;;;25.10;59.70;;;;;;4858158;29;20132;-71
2022/09/28 02:47:02;;;;;;;6.20;4.90;;;25.10;59.60;;;;;;4882219;29;20039;-71
2022/09/28 02:49:43;;;;;;;6.10;4.90;;;25.10;59.60;;;;;;4973238;28;20031;-71
2022/09/28 02:52:48;;;;;;;6.75;4.90;;;25.10;59.60;;;;;;4979585;28;20096;-71
2022/09/28 02:55:30;;;;;;;6.22;4.45;;;25.20;59.60;;;;;;5035630;28;20037;-70
2022/09/28 02:58:15;;;;;;;5.88;5.10;;;25.20;59.60;;;;;;5046604;28;20029;-71
2022/09/28 03:01:12;;;;;;;7.22;5.20;;;25.20;59.50;;;;;;5028165;28;20024;-71
2022/09/28 03:04:10;;;;;;;4.97;4.22;;;25.10;59.60;;;;;;4968010;28;20055;-71
2022/09/28 03:06:47;;;;;;;6.10;4.65;;;25.10;59.70;;;;;;4970924;28;20030;-71
2022/09/28 03:09:22;;;;;;;6.53;4.65;;;25.00;59.70;;;;;;4972065;28;20053;-71
2022/09/28 03:11:55;;;;;;;7.93;4.88;;;25.10;59.80;;;;;;4988944;28;20050;-70
2022/09/28 03:14:22;;;;;;;6.32;4.35;;;25.00;59.90;;;;;;4981295;28;20045;-71
2022/09/28 03:16:52;;;;;;;6.97;4.72;;;25.00;60.00;;;;;;4957618;28;20042;-70
2022/09/28 03:19:24;;;;;;;8.82;5.35;;;24.80;59.90;;;;;;4970464;28;20037;-71
2022/09/28 03:21:50;;;;;;;5.93;4.82;;;24.80;59.90;;;;;;4958171;28;20177;-71
2022/09/28 03:24:16;;;;;;;7.50;5.28;;;24.90;60.20;;;;;;4969758;28;20125;-71
2022/09/28 03:26:42;;;;;;;7.10;5.03;;;24.90;60.10;;;;;;4952795;28;20042;-72
2022/09/28 03:29:09;;;;;;;5.60;4.57;;;25.00;60.10;;;;;;4952321;28;20122;-71
2022/09/28 03:31:36;;;;;;;11.85;4.43;;;25.00;60.00;;;;;;4936579;28;20050;-71
2022/09/28 03:34:03;;;;;;;7.47;4.18;;;25.00;59.70;;;;;;4952638;28;20082;-72
2022/09/28 03:36:30;;;;;;;8.30;4.07;;;25.00;59.50;;;;;;4961676;28;20126;-71
2022/09/28 03:38:56;;;;;;;9.38;4.85;;;25.10;59.40;;;;;;4951602;28;20051;-71
2022/09/28 03:41:24;;;;;;;5.28;4.35;;;25.10;59.30;;;;;;4998230;28;20155;-71
2022/09/28 03:43:50;;;;;;;10.77;5.60;;;25.10;59.20;;;;;;5012341;28;20041;-71
2022/09/28 03:46:17;;;;;;;7.60;4.90;;;25.10;59.20;;;;;;5028512;28;20467;-70
2022/09/28 03:48:47;;;;;;;10.43;5.65;;;25.10;59.30;;;;;;5020236;28;20029;-70
2022/09/28 03:51:13;;;;;;;8.52;5.07;;;25.20;59.30;;;;;;5029193;28;20059;-71
2022/09/28 03:53:39;;;;;;;8.63;5.68;;;25.20;59.40;;;;;;5029637;28;20060;-71
2022/09/28 03:56:14;;;;;;;13.48;5.18;;;25.00;59.50;;;;;;5034323;28;20036;-71
2022/09/28 03:58:41;;;;;;;8.18;4.93;;;25.10;59.60;;;;;;5033256;28;20041;-70
2022/09/28 04:01:11;;;;;;;8.23;5.03;;;25.00;59.70;;;;;;5028541;28;20529;-71
2022/09/28 04:03:38;;;;;;;9.13;5.60;;;25.00;59.80;;;;;;5042727;28;20143;-71
2022/09/28 04:06:04;;;;;;;7.05;5.45;;;25.00;59.90;;;;;;5028556;28;20043;-71
2022/09/28 04:08:30;;;;;;;9.25;5.60;;;24.90;59.70;;;;;;5030819;28;20121;-71
2022/09/28 04:10:59;;;;;;;9.18;5.60;;;24.90;59.90;;;;;;5030893;28;20470;-71
2022/09/28 04:13:28;;;;;;;7.50;5.78;;;24.90;60.10;;;;;;5008299;28;20509;-71
2022/09/28 04:15:57;;;;;;;9.85;5.57;;;24.80;60.20;;;;;;4984815;28;20049;-71
2022/09/28 04:18:24;;;;;;;10.13;5.90;;;24.80;60.20;;;;;;4972342;28;20046;-71
2022/09/28 04:21:14;;;;;;;16.88;7.00;;;24.60;60.30;;;;;;5007455;28;20034;-70
2022/09/28 04:24:03;;;;;;;10.93;5.53;;;24.70;60.50;;;;;;4950892;28;20312;-71
2022/09/28 04:26:29;;;;;;;12.32;6.20;;;24.70;60.70;;;;;;4931126;29;20118;-71
2022/09/28 04:31:45;;;;;;;9.68;5.38;;;24.60;60.60;;;;;;4933473;29;20052;-71
2022/09/28 04:34:16;;;;;;;8.30;5.70;;;24.70;60.50;;;;;;4939093;28;20035;-71
2022/09/28 04:36:43;;;;;;;7.55;6.03;;;24.70;60.30;;;;;;4932527;28;20039;-70
2022/09/28 04:39:14;;;;;;;7.95;5.85;;;24.80;60.10;;;;;;4946099;28;20050;-71
2022/09/28 04:41:42;;;;;;;15.85;5.63;;;24.90;60.00;;;;;;4947104;28;20193;-71
2022/09/28 04:44:08;;;;;;;14.13;6.22;;;24.80;59.80;;;;;;4948688;28;20051;-71
2022/09/28 04:46:35;;;;;;;13.95;6.97;;;24.80;60.00;;;;;;4903764;28;20062;-71
2022/09/28 04:49:27;;;;;;;10.50;5.50;;;24.80;60.00;;;;;;4942075;28;20098;-71
2022/09/28 04:52:01;;;;;;;16.27;6.13;;;24.80;59.90;;;;;;4981657;28;20113;-71
2022/09/28 04:54:27;;;;;;;11.30;5.47;;;24.80;59.90;;;;;;5007673;28;20129;-71
2022/09/28 04:56:54;;;;;;;7.95;5.47;;;24.80;59.90;;;;;;4973572;28;20717;-70
2022/09/28 04:59:20;;;;;;;17.50;6.97;;;24.80;59.90;;;;;;4974802;28;20518;-71
2022/09/28 05:01:46;;;;;;;8.32;5.60;;;24.80;60.00;;;;;;5016381;28;20049;-71
2022/09/28 05:04:18;;;;;;;14.07;6.17;;;24.80;60.10;;;;;;5030560;28;20045;-71
2022/09/28 05:07:02;;;;;;;9.70;6.30;;;24.80;60.00;;;;;;5030309;28;20049;-70
2022/09/28 05:09:28;;;;;;;8.88;6.43;;;24.80;59.90;;;;;;5030183;28;20036;-69
2022/09/28 05:11:54;;;;;;;8.32;6.55;;;24.80;59.80;;;;;;5025327;28;20025;-70
2022/09/28 05:14:23;;;;;;;9.02;5.00;;;24.80;59.80;;;;;;5030546;28;20035;-70
2022/09/28 05:16:50;;;;;;;2.20;1.80;;;24.80;59.30;;;;;;5031809;28;20485;-70
2022/09/28 05:19:26;;;;;;;3.10;1.90;;;24.70;58.60;;;;;;5027437;28;20026;-69
2022/09/28 05:22:02;;;;;;;1.70;1.58;;;24.90;56.90;;;;;;5025477;28;20030;-69
2022/09/28 05:24:30;;;;;;;6.20;2.47;;;24.90;57.60;;;;;;5036249;28;20100;-70
2022/09/28 05:26:56;;;;;;;2.20;2.00;;;25.10;56.10;;;;;;5031406;28;20021;-71
2022/09/28 05:29:22;;;;;;;3.50;3.17;;;25.00;59.90;;;;;;5032109;28;20029;-71
2022/09/28 05:32:26;;;;;;;5.45;3.95;;;25.20;57.10;;;;;;4979613;28;20117;-71
2022/09/28 05:35:00;;;;;;;11.63;6.82;;;25.20;55.90;;;;;;4988308;28;20030;-71
2022/09/28 05:37:31;;;;;;;15.18;10.40;;;25.20;55.70;;;;;;4978512;28;20105;-72
2022/09/28 05:39:57;;;;;;;2.85;2.55;;;25.30;55.80;;;;;;4980562;28;20549;-73
2022/09/28 05:42:24;;;;;;;8.05;5.53;;;25.20;54.30;;;;;;4973627;28;20042;-72
2022/09/28 05:44:50;;;;;;;7.55;5.20;;;25.20;58.90;;;;;;4973601;28;20065;-71
2022/09/28 05:47:17;;;;;;;8.07;5.65;;;25.20;60.10;;;;;;4974789;28;20122;-69
2022/09/28 05:49:43;;;;;;;11.38;6.32;;;25.30;60.50;;;;;;4975433;28;20077;-69
2022/09/28 05:52:10;;;;;;;11.10;5.55;;;25.30;60.60;;;;;;4984884;28;20042;-69
2022/09/28 05:54:37;;;;;;;11.48;5.63;;;25.30;60.70;;;;;;4975862;28;20381;-72
2022/09/28 05:57:05;;;;;;;13.15;6.05;;;25.30;61.90;;;;;;4987160;28;20130;-72
2022/09/28 05:59:33;;;;;;;10.65;5.97;;;25.20;60.20;;;;;;4973755;28;20048;-70
2022/09/28 06:02:00;;;;;;;8.82;4.90;;;25.30;60.40;;;;;;4973464;28;20045;-69
2022/09/28 06:04:26;;;;;;;14.25;6.47;;;25.30;63.20;;;;;;5027145;28;20048;-70
2022/09/28 06:06:52;;;;;;;17.15;5.57;;;25.50;63.00;;;;;;5048426;28;20083;-70
2022/09/28 06:09:18;;;;;;;22.85;5.18;;;25.40;61.90;;;;;;5045322;28;20021;-71
2022/09/28 06:11:53;;;;;;;6.93;4.13;;;25.30;61.20;;;;;;5009773;28;20124;-70
2022/09/28 06:14:24;;;;;;;14.60;5.32;;;25.30;60.80;;;;;;4991609;28;20026;-71
2022/09/28 06:16:51;;;;;;;14.70;6.53;;;25.40;60.70;;;;;;4986322;28;20050;-72
2022/09/28 06:19:17;;;;;;;9.13;6.82;;;25.30;60.50;;;;;;4990076;28;20038;-71
2022/09/28 06:22:02;;;;;;;10.25;6.47;;;25.30;60.60;;;;;;5006390;28;20072;-72
2022/09/28 06:24:31;;;;;;;6.13;5.00;;;25.50;60.60;;;;;;4989177;28;20054;-68
2022/09/28 06:26:57;;;;;;;7.93;5.18;;;25.40;60.70;;;;;;4990323;28;20052;-72
2022/09/28 06:29:23;;;;;;;8.55;6.75;;;25.40;60.90;;;;;;5006242;28;20446;-72
2022/09/28 06:31:50;;;;;;;11.70;6.07;;;25.50;61.00;;;;;;4982446;28;20816;-71
2022/09/28 06:34:17;;;;;;;6.88;5.05;;;25.50;61.20;;;;;;4985315;28;20049;-69
2022/09/28 06:36:44;;;;;;;11.82;5.30;;;25.50;61.50;;;;;;4969283;28;20050;-70
2022/09/28 06:39:10;;;;;;;7.65;5.75;;;25.60;61.60;;;;;;4986142;28;20145;-74
2022/09/28 06:41:36;;;;;;;6.03;5.22;;;25.60;61.90;;;;;;4979295;28;20448;-71
2022/09/28 06:44:12;;;;;;;9.77;5.68;;;25.60;63.70;;;;;;5024340;28;20080;-72
2022/09/28 06:46:56;;;;;;;11.20;6.00;;;25.90;64.70;;;;;;5023886;28;20056;-71
2022/09/28 06:49:42;;;;;;;7.78;2.72;;;26.30;63.80;;;;;;5027607;28;20072;-72
2022/09/28 06:52:20;;;;;;;1.27;1.20;;;26.70;58.60;;;;;;5029729;28;20022;-74
2022/09/28 06:55:05;;;;;;;2.03;1.10;;;26.80;57.60;;;;;;5023674;28;20101;-72
2022/09/28 06:57:47;;;;;;;3.60;2.35;;;26.80;55.60;;;;;;5023698;28;20041;-68
2022/09/28 07:00:14;;;;;;;2.42;1.63;;;26.70;55.70;;;;;;5027966;28;20086;-71
2022/09/28 07:02:43;;;;;;;0.70;0.70;;;26.60;56.10;;;;;;5002585;28;20065;-72
2022/09/28 07:05:35;;;;;;;6.55;5.72;;;26.70;56.00;;;;;;5012550;28;20471;-69
2022/09/28 07:08:19;;;;;;;9.80;5.45;;;26.60;56.60;;;;;;5005467;28;20449;-70
2022/09/28 07:11:19;;;;;;;9.65;5.30;;;26.50;56.80;;;;;;4950581;28;20047;-69
2022/09/28 07:14:05;;;;;;;8.25;5.93;;;26.40;57.10;;;;;;4956541;28;20071;-69
2022/09/28 07:16:31;;;;;;;10.45;5.90;;;26.40;57.30;;;;;;4948731;28;20035;-70
2022/09/28 07:18:57;;;;;;;6.30;4.80;;;26.30;57.50;;;;;;4960559;28;20042;-68
2022/09/28 07:21:23;;;;;;;10.20;6.35;;;26.50;57.60;;;;;;4948893;28;20047;-69
2022/09/28 07:23:52;;;;;;;10.02;4.97;;;26.20;57.70;;;;;;4951806;28;20145;-69
2022/09/28 07:26:24;;;;;;;9.48;5.30;;;26.40;57.70;;;;;;4969093;28;20480;-70
2022/09/28 07:28:56;;;;;;;5.60;4.53;;;26.30;57.60;;;;;;4934372;29;20047;-69
2022/09/28 07:31:46;;;;;;;7.25;5.07;;;26.30;57.60;;;;;;4892926;29;20665;-69
2022/09/28 07:34:42;;;;;;;5.53;4.72;;;26.30;57.50;;;;;;4907083;29;20051;-69
2022/09/28 07:37:13;;;;;;;8.00;4.68;;;26.20;57.50;;;;;;4908851;29;20641;-69
2022/09/28 07:42:28;;;;;;;9.07;4.82;;;26.20;57.40;;;;;;4906107;29;20039;-69
2022/09/28 07:44:56;;;;;;;7.85;5.07;;;26.40;57.40;;;;;;4915287;29;20161;-69
2022/09/28 07:47:25;;;;;;;7.55;5.22;;;26.20;57.30;;;;;;4931081;29;20079;-69
2022/09/28 07:50:30;;;;;;;9.68;4.93;;;26.20;57.10;;;;;;4883177;29;20514;-69
2022/09/28 07:53:21;;;;;;;7.10;4.95;;;26.20;57.30;;;;;;4819218;29;20543;-69
2022/09/28 07:56:05;;;;;;;10.80;4.88;;;26.00;57.20;;;;;;4803051;29;20073;-72
2022/09/28 07:59:00;;;;;;;5.80;4.55;;;26.00;57.30;;;;;;4822797;29;20042;-70
2022/09/28 08:01:38;;;;;;;6.00;4.85;;;25.90;56.90;;;;;;4820848;29;20046;-70
2022/09/28 08:04:05;;;;;;;5.00;3.85;;;26.00;57.30;;;;;;4807414;29;20538;-70
2022/09/28 08:06:32;;;;;;;8.68;4.55;;;26.00;57.30;;;;;;4807228;29;20578;-70
2022/09/28 08:09:00;;;;;;;4.82;3.55;;;25.90;57.00;;;;;;4836806;29;20467;-71
2022/09/28 08:11:46;;;;;;;7.30;4.82;;;26.00;57.40;;;;;;4869716;29;20053;-73
2022/09/28 08:14:51;;;;;;;3.58;3.25;;;25.90;56.90;;;;;;4829648;29;20050;-72
2022/09/28 08:17:47;;;;;;;6.65;3.58;;;25.90;56.80;;;;;;4823001;29;20061;-71
2022/09/28 08:23:03;;;;;;;7.53;5.32;;;25.90;56.30;;;;;;4843798;29;20058;-73
2022/09/28 08:25:30;;;;;;;2.35;1.95;;;25.90;55.80;;;;;;4843090;29;20061;-72
2022/09/28 08:27:56;;;;;;;8.85;3.67;;;26.00;56.60;;;;;;4857477;29;20420;-74
2022/09/28 08:30:23;;;;;;;5.20;3.13;;;26.00;56.50;;;;;;4878285;29;20565;-71
2022/09/28 08:32:55;;;;;;;1.65;1.17;;;25.90;55.70;;;;;;4865038;29;20040;-71
2022/09/28 08:35:40;;;;;;;1.40;1.30;;;25.90;55.90;;;;;;4929546;28;20085;-71
2022/09/28 08:38:19;;;;;;;0.95;0.95;;;26.00;55.90;;;;;;4938862;28;20034;-73
2022/09/28 08:41:15;;;;;;;2.92;2.28;;;26.00;55.80;;;;;;4987514;28;20070;-71
2022/09/28 08:44:08;;;;;;;;;;;26.00;55.50;;;;;;4909968;29;20605;-72
2022/09/28 08:48:42;;;;;;;1.92;1.30;;;26.00;55.40;;;;;;4991574;28;19964;-77
2022/09/28 08:50:25;;;;;;;0.80;0.80;;;26.00;55.20;;;;;;4971283;28;20042;-72
2022/09/28 08:53:48;;;;;;;0.35;0.35;;;26.00;55.70;;;;;;4959227;28;20197;-76
2022/09/28 08:56:42;;;;;;;3.88;1.90;;;26.00;55.60;;;;;;4975427;28;20042;-71
2022/09/28 08:59:14;;;;;;;1.80;1.65;;;26.00;56.40;;;;;;4975727;28;20057;-74
2022/09/28 09:01:49;;;;;;;0.70;0.70;;;26.10;56.00;;;;;;4988480;28;20138;-70
2022/09/28 09:04:16;;;;;;;2.78;1.80;;;26.10;56.00;;;;;;4973672;28;20062;-70
2022/09/28 09:07:38;;;;;;;0.47;0.47;;;26.00;56.00;;;;;;4958585;28;20120;-72
2022/09/28 09:10:37;;;;;;;1.63;1.40;;;26.00;55.90;;;;;;4925478;29;20087;-74
2022/09/28 09:13:22;;;;;;;0.47;0.47;;;26.10;55.30;;;;;;4936073;29;20122;-72
2022/09/28 09:15:58;;;;;;;1.42;1.33;;;26.00;54.80;;;;;;4917713;29;20062;-74
2022/09/28 09:18:51;;;;;;;0.38;0.38;;;26.10;54.90;;;;;;4914704;29;20052;-73
2022/09/28 09:21:51;;;;;;;2.22;1.15;;;26.10;54.80;;;;;;4956935;28;20046;-72
2022/09/28 09:24:37;;;;;;;2.58;0.95;;;26.20;54.80;;;;;;4955700;28;20050;-74
2022/09/28 09:27:06;;;;;;;3.92;1.15;;;26.00;53.00;;;;;;4939401;28;20507;-75
2022/09/28 09:29:33;;;;;;;3.97;1.92;;;26.10;52.60;;;;;;4936773;29;20513;-76
2022/09/28 09:32:33;;;;;;;4.80;1.70;;;26.00;52.40;;;;;;4951472;29;20116;-73
2022/09/28 09:35:19;;;;;;;2.03;1.65;;;26.20;51.90;;;;;;4952178;29;20036;-73
2022/09/28 09:38:39;;;;;;;2.83;1.90;;;26.10;51.70;;;;;;4932688;29;20047;-73
2022/09/28 09:41:45;;;;;;;2.00;1.60;;;26.00;51.60;;;;;;4893872;29;20498;-75
2022/09/28 09:44:53;;;;;;;1.08;0.95;;;26.00;51.70;;;;;;4892233;29;20056;-74
2022/09/28 09:48:09;;;;;;;0.30;0.30;;;25.90;51.10;;;;;;4856993;29;20128;-73
2022/09/28 09:50:44;;;;;;;1.33;1.23;;;25.90;50.70;;;;;;4856628;29;20049;-73
2022/09/28 09:53:37;;;;;;;0.77;0.77;;;25.90;50.70;;;;;;4855465;29;20041;-73
2022/09/28 09:56:11;;;;;;;;;;;25.90;50.00;;;;;;4856578;29;20060;-72
2022/09/28 09:59:05;;;;;;;0.40;0.40;;;25.80;49.70;;;;;;4854466;29;20006;-70
2022/09/28 10:01:38;;;;;;;0.52;0.52;;;25.90;50.30;;;;;;4824260;29;20969;-70
2022/09/28 10:04:35;;;;;;;0.50;0.50;;;25.80;50.30;;;;;;4853363;29;20050;-70
2022/09/28 10:07:22;;;;;;;0.80;0.80;;;25.80;50.40;;;;;;4842053;29;20045;-70
2022/09/28 10:09:51;;;;;;;0.65;0.52;;;25.80;50.10;;;;;;4855877;29;20275;-70
2022/09/28 10:12:32;;;;;;;0.30;0.30;;;25.80;49.70;;;;;;4853322;29;20037;-71
2022/09/28 10:15:01;;;;;;;0.85;0.50;;;25.80;49.80;;;;;;4886009;29;20060;-73
2022/09/28 10:17:27;;;;;;;0.73;0.73;;;25.90;49.60;;;;;;4935151;28;20055;-70
2022/09/28 10:20:18;;;;;;;0.63;0.63;;;25.90;49.40;;;;;;4923786;29;20060;-72
2022/09/28 10:23:13;;;;;;;0.43;0.43;;;25.80;49.60;;;;;;4914396;29;20401;-72
2022/09/28 10:25:42;;;;;;;1.33;0.95;;;25.90;49.00;;;;;;4959322;28;20058;-71
2022/09/28 10:28:18;;;;;;;3.88;1.38;;;25.80;49.60;;;;;;5000315;28;20041;-71
2022/09/28 10:30:44;;;;;;;0.93;0.90;;;25.90;48.90;;;;;;4989032;28;20046;-71
2022/09/28 10:33:29;;;;;;;1.98;1.48;;;25.90;49.20;;;;;;4959887;28;20035;-71
2022/09/28 10:35:57;;;;;;;2.25;1.52;;;25.80;49.40;;;;;;4943343;28;20058;-71
2022/09/28 10:38:23;;;;;;;1.00;1.00;;;25.80;49.10;;;;;;4945019;28;20374;-71
2022/09/28 10:41:08;;;;;;;0.93;0.93;;;25.80;48.20;;;;;;4967148;28;20468;-71
2022/09/28 10:44:05;;;;;;;3.55;1.33;;;26.10;47.20;;;;;;4914329;29;20504;-70
2022/09/28 10:46:37;;;;;;;1.77;1.48;;;26.30;46.50;;;;;;4916078;29;20063;-73
2022/09/28 10:49:13;;;;;;;1.42;1.33;;;26.40;46.70;;;;;;4914581;29;20578;-73
2022/09/28 10:51:48;;;;;;;1.85;1.48;;;26.30;46.90;;;;;;4913993;29;20533;-72
2022/09/28 10:54:24;;;;;;;2.00;0.98;;;26.30;46.50;;;;;;4914838;29;20074;-71
2022/09/28 10:56:53;;;;;;;1.20;1.10;;;26.30;46.60;;;;;;4950886;28;20167;-69
2022/09/28 10:59:29;;;;;;;1.50;1.40;;;26.40;46.60;;;;;;4951231;28;20050;-72
2022/09/28 11:02:16;;;;;;;2.90;1.33;;;26.30;46.70;;;;;;4947246;28;20031;-71
2022/09/28 11:04:55;;;;;;;1.70;1.37;;;26.20;46.50;;;;;;4978769;28;20124;-71
2022/09/28 11:07:27;;;;;;;1.83;1.50;;;26.10;46.30;;;;;;5020023;28;20057;-72
2022/09/28 11:09:55;;;;;;;4.18;1.38;;;26.20;47.00;;;;;;4991940;28;20049;-73
2022/09/28 11:12:29;;;;;;;2.33;1.50;;;26.20;48.20;;;;;;5010970;28;20125;-73
2022/09/28 11:15:02;;;;;;;1.65;1.55;;;26.10;48.30;;;;;;4998281;28;20923;-70
2022/09/28 11:17:39;;;;;;;2.17;1.98;;;26.20;48.40;;;;;;5026728;28;20455;-71
2022/09/28 11:20:25;;;;;;;2.17;1.60;;;26.00;48.40;;;;;;5030008;28;20045;-74
2022/09/28 11:22:53;;;;;;;1.67;1.50;;;26.10;48.00;;;;;;5033557;28;20662;-75
2022/09/28 11:25:25;;;;;;;1.70;1.60;;;26.30;48.10;;;;;;5033019;28;20425;-73
2022/09/28 11:27:51;;;;;;;1.77;1.67;;;26.40;47.60;;;;;;5038341;28;20120;-71
2022/09/28 11:30:28;;;;;;;1.30;1.20;;;26.50;46.50;;;;;;5027586;28;20528;-70
2022/09/28 11:33:26;;;;;;;2.10;1.60;;;26.30;46.90;;;;;;5030581;28;20053;-69
2022/09/28 11:36:14;;;;;;;1.67;1.50;;;26.30;46.50;;;;;;5033283;28;20102;-70
2022/09/28 11:39:07;;;;;;;2.25;1.95;;;26.30;46.80;;;;;;5038541;28;20021;-71
2022/09/28 11:42:09;;;;;;;2.78;2.05;;;26.30;47.00;;;;;;5001455;28;20053;-71
2022/09/28 11:44:47;;;;;;;1.58;1.48;;;26.30;47.30;;;;;;4992458;28;20128;-69
2022/09/28 11:47:46;;;;;;;5.70;1.40;;;26.10;47.40;;;;;;5003263;28;20030;-71
2022/09/28 11:50:38;;;;;;;2.13;1.55;;;26.20;48.10;;;;;;4924269;29;20055;-70
2022/09/28 11:53:18;;;;;;;1.58;1.45;;;26.00;48.50;;;;;;4906218;29;20040;-69
2022/09/28 11:56:25;;;;;;;3.95;1.30;;;26.20;48.20;;;;;;4915999;29;20511;-70
2022/09/28 11:58:58;;;;;;;1.75;1.60;;;25.90;47.90;;;;;;4903579;29;20096;-70
2022/09/28 12:01:44;;;;;;;2.83;1.67;;;25.90;48.10;;;;;;4911146;29;20061;-70
2022/09/28 12:04:45;;;;;;;3.28;1.60;;;25.90;48.10;;;;;;4904986;29;20056;-72
2022/09/28 12:07:31;;;;;;;15.48;6.15;;;25.90;48.00;;;;;;4914656;29;20044;-70
2022/09/28 12:10:10;;;;;;;3.58;1.75;;;25.90;47.90;;;;;;4903062;29;20635;-69
2022/09/28 12:12:50;;;;;;;4.43;1.98;;;25.90;48.00;;;;;;4920648;29;20093;-69
2022/09/28 12:15:19;;;;;;;3.95;2.55;;;25.80;48.10;;;;;;4923592;29;20138;-69
2022/09/28 12:17:53;;;;;;;1.92;1.65;;;25.90;48.20;;;;;;4934590;29;20492;-69
2022/09/28 12:20:27;;;;;;;2.35;1.80;;;25.90;48.30;;;;;;4934875;29;20504;-69
2022/09/28 12:23:04;;;;;;;2.08;1.80;;;25.90;48.30;;;;;;4930009;29;20052;-74
2022/09/28 12:25:39;;;;;;;2.15;1.58;;;25.80;48.30;;;;;;4941757;29;20494;-74
2022/09/28 12:28:20;;;;;;;1.90;1.33;;;25.90;48.40;;;;;;5018687;28;20052;-75
2022/09/28 12:30:48;;;;;;;1.77;1.67;;;25.90;48.40;;;;;;5027259;28;20057;-75
2022/09/28 12:33:14;;;;;;;3.58;1.30;;;25.80;48.60;;;;;;5031190;28;20048;-73
2022/09/28 12:35:56;;;;;;;1.58;1.48;;;25.80;48.70;;;;;;5014656;28;20386;-73
2022/09/28 12:38:34;;;;;;;1.80;1.60;;;25.80;48.90;;;;;;4984171;28;20045;-73
2022/09/28 12:41:21;;;;;;;2.35;1.27;;;25.90;49.10;;;;;;4972716;28;20208;-67
2022/09/28 12:44:17;;;;;;;2.15;1.58;;;25.80;49.20;;;;;;4990718;28;20476;-72
2022/09/28 12:47:09;;;;;;;1.85;1.25;;;25.90;49.40;;;;;;4995264;28;20033;-68
2022/09/28 12:50:04;;;;;;;1.70;1.43;;;25.90;49.60;;;;;;4972984;28;20046;-73
2022/09/28 12:53:14;;;;;;;3.05;1.50;;;26.00;48.60;;;;;;4988320;28;20030;-70
2022/09/28 12:56:10;;;;;;;1.98;1.83;;;25.80;50.00;;;;;;4882305;29;20040;-73
2022/09/28 12:59:09;;;;;;;2.42;1.52;;;25.80;49.90;;;;;;4907511;29;20048;-74
2022/09/28 13:02:13;;;;;;;5.43;3.45;;;25.90;50.30;;;;;;4910285;29;20044;-72
2022/09/28 13:05:11;;;;;;;1.48;1.30;;;25.90;50.50;;;;;;4899363;29;20197;-69
2022/09/28 13:07:49;;;;;;;1.67;1.55;;;26.00;51.10;;;;;;4896246;29;20071;-74
2022/09/28 13:10:18;;;;;;;1.33;1.23;;;25.80;50.80;;;;;;4944965;28;20047;-68
2022/09/28 13:13:26;;;;;;;2.33;1.17;;;25.90;50.90;;;;;;4955880;28;20043;-72
2022/09/28 13:16:20;;;;;;;1.67;1.58;;;26.00;51.60;;;;;;4924196;29;20122;-72
2022/09/28 13:19:00;;;;;;;1.63;1.48;;;25.90;51.30;;;;;;4915960;29;20047;-71
2022/09/28 13:21:39;;;;;;;1.85;1.38;;;25.90;51.50;;;;;;4903844;29;20044;-73
2022/09/28 13:24:11;;;;;;;1.85;1.55;;;26.00;51.70;;;;;;4930149;29;20122;-72
2022/09/28 13:26:42;;;;;;;5.97;1.38;;;25.90;51.00;;;;;;4956241;28;20034;-72
2022/09/28 13:29:14;;;;;;;2.03;1.63;;;26.00;51.20;;;;;;4971220;28;20424;-72
2022/09/28 13:31:49;;;;;;;2.45;1.65;;;26.00;50.90;;;;;;4961170;28;20421;-72
2022/09/28 13:34:21;;;;;;;1.95;1.63;;;25.90;50.30;;;;;;4971479;28;20484;-72
2022/09/28 13:37:19;;;;;;;1.60;1.50;;;25.90;49.80;;;;;;4981343;28;20813;-72
2022/09/28 13:39:45;;;;;;;1.40;1.30;;;25.90;49.90;;;;;;4965367;28;20835;-72
2022/09/28 13:42:32;;;;;;;1.75;1.60;;;25.90;49.80;;;;;;4980065;28;20030;-74
2022/09/28 13:45:00;;;;;;;3.95;1.70;;;25.90;49.70;;;;;;4970497;28;20070;-71